Porto Esperanca, Brazil
Current Conditions -  °F | °C
As of 6:00 AM on Thursday 23 Oct 2014 (Local Time) from SBCR Reporting Station
Scattered Clouds Scattered Clouds  
Wind Chill: 84°   Ceiling: Unl
Heat Index: 86°   Visibility: 6mi
Dew Point: 64°   Wind: 8mph
Humidity: 51%   Direction: 120°ESE
Pressure: 29.85"   Gusts: NA
Location:  19.62°S, 57.45°W
Report Text: SBCR 230900Z 12007KT 9999 SCT025 29/18 Q1011
Loading
Personal Weather Stations






























Interactive Weather Map
Tropical Storm Tracking
New forecast layout! Learn more

10-Day Weather Forecast

Advertisements
Track Severe Weather on mobile